.
WxDataArchive / Data Records for 2015-01-24
2015-01-23 January 2015 2015-01-25

Data Records for Saturday, 24 January 2015

Time	Temp	Chill	HIndex	Humid	Dewpt	 Wind 	HiWind	WindDir	Rain 	Barom
-----	----	-----	------	-----	-----	------	------	-------	-----	-----
00:00	28.7	28.7	28.7	78	22.7	1	2	270	0.00	29.867 
00:05	28.7	28.7	28.7	78	22.7	1	2	270	0.00	29.867 
00:10	28.5	28.5	28.5	78	22.5	1	2	270	0.00	29.867 
00:15	28.5	28.5	28.5	78	22.5	2	4	270	0.00	29.867 
00:20	28.4	28.4	28.4	78	22.4	2	5	270	0.00	29.867 
00:25	28.2	28.2	28.2	78	22.2	1	3	270	0.00	29.867 
00:30	28.1	28.1	28.1	78	22.1	2	5	270	0.00	29.854 
00:35	27.9	27.9	27.9	79	22.2	1	2	270	0.00	29.854 
00:40	27.9	27.9	27.9	79	22.2	1	4	270	0.00	29.854 
00:45	27.8	27.8	27.8	79	22.2	0	2	270	0.00	29.837 
00:50	27.6	27.6	27.6	79	22.0	0	2	270	0.00	29.837 
00:55	27.5	27.5	27.5	80	22.2	1	3	270	0.00	29.837 
01:00	27.5	27.5	27.5	80	22.2	1	4	270	0.00	29.837 
01:05	27.5	27.5	27.5	81	22.4	1	3	270	0.00	29.837 
01:10	27.5	27.5	27.5	81	22.4	1	3	270	0.00	29.837 
01:15	27.3	27.3	27.3	81	22.3	2	3	270	0.00	29.831 
01:20	27.3	27.3	27.3	81	22.3	1	4	270	0.00	29.831 
01:25	27.3	27.3	27.3	81	22.3	2	6	270	0.00	29.831 
01:30	27.2	27.2	27.2	80	21.9	2	4	270	0.00	29.837 
01:35	27.2	27.2	27.2	80	21.9	2	5	248	0.00	29.837 
01:40	27.0	27.0	27.0	81	22.0	2	3	248	0.00	29.837 
01:45	27.0	27.0	27.0	81	22.0	1	3	248	0.00	29.825 
01:50	27.0	27.0	27.0	81	22.0	1	3	248	0.00	29.825 
01:55	27.0	27.0	27.0	81	22.0	1	2	248	0.00	29.825 
02:00	27.0	27.0	27.0	81	22.0	1	3	248	0.00	29.818 
02:05	27.0	27.0	27.0	81	22.0	1	3	248	0.00	29.818 
02:10	27.0	27.0	27.0	81	22.0	1	3	248	0.00	29.818 
02:15	26.9	26.9	26.9	81	21.9	1	2	248	0.00	29.809 
02:20	26.9	26.9	26.9	81	21.9	1	2	248	0.00	29.809 
02:25	26.9	26.9	26.9	81	21.9	0	1	248	0.00	29.809 
02:30	26.9	26.9	26.9	81	21.9	0	2	248	0.00	29.805 
02:35	26.7	26.7	26.7	81	21.7	1	3	248	0.00	29.805 
02:40	26.7	26.7	26.7	81	21.7	0	1	248	0.00	29.805 
02:45	26.6	26.6	26.6	81	21.6	0	1	248	0.00	29.795 
02:50	26.6	26.6	26.6	81	21.6	0	1	248	0.00	29.795 
02:55	26.4	26.4	26.4	82	21.7	0	2	248	0.00	29.795 
03:00	26.4	26.4	26.4	82	21.7	0	1	248	0.00	29.790 
03:05	26.4	26.4	26.4	82	21.7	0	2	248	0.00	29.790 
03:10	26.4	26.4	26.4	82	21.7	0	1	248	0.00	29.790 
03:15	26.3	26.3	26.3	83	21.9	0	1	248	0.00	29.788 
03:20	26.4	26.4	26.4	83	22.0	0	2	248	0.00	29.788 
03:25	26.4	26.4	26.4	83	22.0	0	1	248	0.00	29.788 
03:30	26.4	26.4	26.4	83	22.0	0	2	248	0.00	29.776 
03:35	26.6	26.6	26.6	83	22.1	0	2	248	0.00	29.776 
03:40	26.6	26.6	26.6	83	22.1	0	4	248	0.00	29.776 
03:45	26.6	26.6	26.6	83	22.1	1	3	248	0.00	29.763 
03:50	26.7	26.7	26.7	83	22.2	0	3	248	0.00	29.763 
03:55	26.7	26.7	26.7	83	22.2	0	1	248	0.00	29.763 
04:00	26.7	26.7	26.7	83	22.2	0	2	248	0.00	29.760 
04:05	26.7	26.7	26.7	83	22.2	0	1	248	0.00	29.760 
04:10	26.9	26.9	26.9	83	22.4	0	1	248	0.00	29.760 
04:15	26.9	26.9	26.9	83	22.4	0	1	248	0.00	29.758 
04:20	26.9	26.9	26.9	83	22.4	0	1	248	0.00	29.758 
04:25	26.9	26.9	26.9	84	22.7	0	1	248	0.00	29.758 
04:30	27.0	27.0	27.0	83	22.5	0	2	248	0.00	29.749 
04:35	27.0	27.0	27.0	83	22.5	0	1	248	0.00	29.749 
04:40	27.0	27.0	27.0	84	22.8	0	2	248	0.00	29.749 
04:45	27.0	27.0	27.0	84	22.8	0	2	248	0.00	29.745 
04:50	27.0	27.0	27.0	84	22.8	0	1	248	0.00	29.745 
04:55	27.2	27.2	27.2	84	23.0	0	2	248	0.00	29.745 
05:00	27.2	27.2	27.2	84	23.0	1	3	248	0.00	29.743 
05:05	27.2	27.2	27.2	83	22.7	1	2	248	0.00	29.743 
05:10	27.2	27.2	27.2	84	23.0	0	2	248	0.00	29.743 
05:15	27.2	27.2	27.2	84	23.0	1	3	248	0.00	29.734 
05:20	27.3	27.3	27.3	84	23.1	0	2	248	0.00	29.734 
05:25	27.3	27.3	27.3	84	23.1	1	3	248	0.00	29.734 
05:30	27.3	27.3	27.3	84	23.1	1	3	248	0.00	29.728 
05:35	27.3	27.3	27.3	83	22.8	1	3	248	0.00	29.728 
05:40	27.3	27.3	27.3	84	23.1	0	2	248	0.00	29.728 
05:45	27.3	27.3	27.3	84	23.1	0	2	248	0.00	29.724 
05:50	27.5	27.5	27.5	84	23.3	0	2	248	0.00	29.724 
05:55	27.5	27.5	27.5	84	23.3	0	2	248	0.00	29.724 
06:00	27.3	27.3	27.3	83	22.8	0	2	248	0.00	29.725 
06:05	27.3	27.3	27.3	83	22.8	0	1	248	0.00	29.725 
06:10	27.2	27.2	27.2	83	22.7	0	2	248	0.00	29.725 
06:15	27.0	27.0	27.0	84	22.8	0	2	248	0.00	29.724 
06:20	26.9	26.9	26.9	84	22.7	0	2	248	0.00	29.724 
06:25	26.9	26.9	26.9	84	22.7	0	2	248	0.00	29.724 
06:30	26.7	26.7	26.7	84	22.5	0	1	248	0.00	29.720 
06:35	26.6	26.6	26.6	84	22.4	0	1	248	0.00	29.720 
06:40	26.6	26.6	26.6	84	22.4	0	1	248	0.00	29.720 
06:45	26.4	26.4	26.4	84	22.2	0	1	248	0.00	29.718 
06:50	26.4	26.4	26.4	84	22.2	0	2	248	0.00	29.718 
06:55	26.3	26.3	26.3	84	22.1	0	1	248	0.00	29.718 
07:00	26.1	26.1	26.1	85	22.2	0	1	248	0.00	29.718 
07:05	26.1	26.1	26.1	85	22.2	0	1	248	0.00	29.718 
07:10	26.0	26.0	26.0	85	22.1	0	1	248	0.00	29.718 
07:15	26.0	26.0	26.0	85	22.1	0	1	248	0.00	29.720 
07:20	26.0	26.0	26.0	85	22.1	0	1	248	0.00	29.720 
07:25	25.8	25.8	25.8	86	22.2	0	1	248	0.00	29.720 
07:30	25.8	25.8	25.8	86	22.2	0	0	---	0.00	29.717 
07:35	25.7	25.7	25.7	86	22.1	0	1	248	0.00	29.717 
07:40	25.7	25.7	25.7	86	22.1	0	1	248	0.00	29.717 
07:45	25.7	25.7	25.7	86	22.1	0	1	248	0.00	29.720 
07:50	25.6	25.6	25.6	86	22.0	0	1	248	0.00	29.720 
07:55	25.4	25.4	25.4	86	21.8	0	0	---	0.00	29.720 
08:00	25.4	25.4	25.4	86	21.8	0	1	248	0.00	29.719 
08:05	25.4	25.4	25.4	87	22.1	0	2	248	0.00	29.719 
08:10	25.4	25.4	25.4	87	22.1	0	2	248	0.00	29.719 
08:15	25.4	25.4	25.4	87	22.1	0	2	248	0.00	29.718 
08:20	25.6	25.6	25.6	87	22.3	0	1	248	0.00	29.718 
08:25	25.6	25.6	25.6	87	22.3	0	1	248	0.00	29.718 
08:30	25.6	25.6	25.6	87	22.3	0	1	248	0.00	29.716 
08:35	25.7	25.7	25.7	88	22.6	0	2	248	0.00	29.716 
08:40	25.8	25.8	25.8	88	22.7	0	1	248	0.00	29.716 
08:45	26.0	26.0	26.0	88	22.9	0	2	248	0.00	29.716 
08:50	26.1	26.1	26.1	88	23.0	0	1	248	0.00	29.716 
08:55	26.4	26.4	26.4	88	23.3	0	2	248	0.00	29.716 
09:00	26.6	26.6	26.6	88	23.5	0	2	248	0.00	29.712 
09:05	26.7	26.7	26.7	88	23.6	1	4	248	0.00	29.712 
09:10	27.0	27.0	27.0	87	23.7	1	4	248	0.00	29.712 
09:15	27.3	27.3	27.3	87	24.0	1	4	248	0.00	29.716 
09:20	27.6	27.6	27.6	87	24.2	1	4	248	0.00	29.716 
09:25	27.8	27.8	27.8	86	24.2	1	2	248	0.00	29.716 
09:30	27.9	27.9	27.9	86	24.3	1	3	248	0.00	29.713 
09:35	28.2	28.2	28.2	85	24.3	1	5	248	0.00	29.713 
09:40	28.4	28.4	28.4	85	24.5	1	3	248	0.00	29.713 
09:45	28.7	28.7	28.7	85	24.8	1	3	248	0.00	29.710 
09:50	29.0	29.0	29.0	84	24.8	1	4	248	0.00	29.710 
09:55	29.1	29.1	29.1	84	24.9	1	2	248	0.00	29.710 
10:00	29.3	29.3	29.3	84	25.1	1	4	248	0.00	29.710 
10:05	29.4	29.4	29.4	83	24.9	1	3	248	0.00	29.710 
10:10	29.5	29.5	29.5	83	25.0	0	3	248	0.00	29.710 
10:15	29.5	29.5	29.5	83	25.0	0	2	248	0.00	29.709 
10:20	29.7	29.7	29.7	83	25.2	1	3	248	0.00	29.709 
10:25	29.7	29.7	29.7	83	25.2	0	2	248	0.00	29.709 
10:30	29.8	29.8	29.8	83	25.3	0	3	248	0.00	29.707 
10:35	29.8	29.8	29.8	82	25.0	1	2	248	0.00	29.707 
10:40	30.0	30.0	30.0	82	25.2	1	3	248	0.00	29.707 
10:45	30.0	30.0	30.0	82	25.2	2	3	248	0.00	29.708 
10:50	30.0	30.0	30.0	82	25.2	1	3	248	0.00	29.708 
10:55	30.0	30.0	30.0	82	25.2	1	4	248	0.00	29.708 
11:00	30.0	30.0	30.0	82	25.2	1	3	248	0.00	29.704 
11:05	30.1	30.1	30.1	82	25.3	1	3	248	0.00	29.704 
11:10	30.1	30.1	30.1	82	25.3	1	4	248	0.00	29.704 
11:15	30.1	30.1	30.1	83	25.6	1	3	248	0.00	29.703 
11:20	30.3	30.3	30.3	82	25.5	1	2	248	0.00	29.703 
11:25	30.3	30.3	30.3	83	25.8	1	4	248	0.00	29.703 
11:30	30.4	30.4	30.4	82	25.6	1	3	248	0.00	29.696 
11:35	30.6	30.6	30.6	82	25.8	1	3	248	0.00	29.696 
11:40	30.7	30.7	30.7	82	25.9	1	4	248	0.00	29.696 
11:45	30.9	30.9	30.9	82	26.1	1	4	248	0.00	29.692 
11:50	30.9	30.9	30.9	82	26.1	1	4	248	0.00	29.692 
11:55	31.0	31.0	31.0	82	26.2	1	4	248	0.00	29.692 
12:00	31.0	31.0	31.0	82	26.2	1	2	248	0.00	29.683 
12:05	31.2	31.2	31.2	82	26.4	1	2	248	0.00	29.683 
12:10	31.3	31.3	31.3	82	26.5	1	2	248	0.00	29.683 
12:15	31.5	31.5	31.5	81	26.4	1	2	248	0.00	29.679 
12:20	31.6	31.6	31.6	81	26.5	1	3	248	0.00	29.679 
12:25	31.8	31.8	31.8	81	26.6	1	2	248	0.00	29.679 
12:30	31.9	31.9	31.9	81	26.7	0	3	248	0.00	29.668 
12:35	32.1	32.1	32.1	81	26.9	1	3	248	0.00	29.668 
12:40	32.1	32.1	32.1	81	26.9	0	2	248	0.00	29.668 
12:45	32.1	32.1	32.1	81	26.9	1	3	248	0.00	29.665 
12:50	32.2	32.2	32.2	81	27.0	0	2	248	0.00	29.665 
12:55	32.4	32.4	32.4	81	27.2	1	3	248	0.00	29.665 
13:00	32.4	32.4	32.4	80	26.9	1	4	248	0.00	29.665 
13:05	32.4	32.4	32.4	80	26.9	1	3	248	0.00	29.665 
13:10	32.5	32.5	32.5	81	27.3	1	2	248	0.00	29.665 
13:15	32.5	32.5	32.5	81	27.3	1	2	248	0.00	29.660 
13:20	32.7	32.7	32.7	81	27.5	1	3	248	0.00	29.660 
13:25	32.7	32.7	32.7	81	27.5	2	3	248	0.00	29.660 
13:30	32.8	32.8	32.8	81	27.6	1	3	248	0.00	29.654 
13:35	32.9	32.9	32.9	81	27.7	1	4	248	0.00	29.654 
13:40	33.2	33.2	33.2	81	28.0	1	3	248	0.00	29.654 
13:45	33.5	33.5	33.5	80	28.0	1	4	248	0.00	29.640 
13:50	33.8	33.8	33.8	80	28.3	1	3	248	0.00	29.640 
13:55	34.0	34.0	34.0	79	28.2	2	4	248	0.00	29.640 
14:00	34.1	34.1	34.1	79	28.3	2	3	248	0.00	29.641 
14:05	34.1	34.1	34.1	78	28.0	1	4	248	0.00	29.641 
14:10	34.4	34.4	34.4	78	28.3	1	5	248	0.00	29.641 
14:15	34.9	34.9	34.9	78	28.7	1	2	248	0.00	29.635 
14:20	35.3	35.3	35.3	78	29.1	2	3	248	0.00	29.635 
14:25	35.6	35.6	35.6	77	29.1	1	4	248	0.00	29.635 
14:30	35.8	35.8	35.8	77	29.3	1	3	248	0.00	29.632 
14:35	36.2	36.2	36.2	77	29.7	1	3	248	0.00	29.632 
14:40	36.5	36.5	36.5	76	29.7	2	4	248	0.00	29.632 
14:45	36.8	36.8	36.8	75	29.6	2	4	248	0.00	29.635 
14:50	36.9	36.9	36.9	74	29.4	2	4	270	0.00	29.635 
14:55	36.9	36.9	36.9	74	29.4	2	4	270	0.00	29.635 
15:00	36.9	36.9	36.9	75	29.7	2	3	270	0.00	29.633 
15:05	36.8	36.8	36.8	75	29.6	2	4	270	0.00	29.633 
15:10	36.8	36.8	36.8	75	29.6	2	3	270	0.00	29.633 
15:15	36.8	36.8	36.8	76	30.0	1	3	270	0.00	29.634 
15:20	36.9	36.9	36.9	75	29.7	1	5	270	0.00	29.634 
15:25	37.0	37.0	37.0	75	29.8	2	3	315	0.00	29.634 
15:30	37.2	37.2	37.2	75	30.0	1	3	315	0.00	29.632 
15:35	37.2	37.2	37.2	75	30.0	1	3	292	0.00	29.632 
15:40	37.2	37.2	37.2	75	30.0	0	2	292	0.00	29.632 
15:45	37.2	37.2	37.2	75	30.0	1	3	292	0.00	29.635 
15:50	37.3	37.3	37.3	75	30.1	1	3	292	0.00	29.635 
15:55	37.3	37.3	37.3	75	30.1	1	3	292	0.00	29.635 
16:00	37.3	37.3	37.3	75	30.1	1	3	292	0.00	29.641 
16:05	37.3	37.3	37.3	75	30.1	1	3	292	0.00	29.641 
16:10	37.3	37.3	37.3	75	30.1	1	3	292	0.00	29.641 
16:15	37.3	37.3	37.3	75	30.1	1	2	292	0.00	29.646 
16:20	37.3	37.3	37.3	75	30.1	0	2	292	0.00	29.646 
16:25	37.3	37.3	37.3	75	30.1	0	1	292	0.00	29.646 
16:30	37.3	37.3	37.3	76	30.4	0	2	292	0.00	29.653 
16:35	37.3	37.3	37.3	76	30.4	0	1	292	0.00	29.653 
16:40	37.3	37.3	37.3	75	30.1	1	3	292	0.00	29.653 
16:45	37.5	37.5	37.5	75	30.3	1	2	292	0.00	29.658 
16:50	37.5	37.5	37.5	74	30.0	1	2	292	0.00	29.658 
16:55	37.6	37.6	37.6	73	29.7	1	2	292	0.00	29.658 
17:00	37.6	37.6	37.6	73	29.7	1	2	292	0.00	29.661 
17:05	37.6	37.6	37.6	73	29.7	0	2	292	0.00	29.661 
17:10	37.6	37.6	37.6	73	29.7	0	2	292	0.00	29.661 
17:15	37.5	37.5	37.5	73	29.6	0	1	292	0.00	29.661 
17:20	37.5	37.5	37.5	73	29.6	0	1	292	0.00	29.661 
17:25	37.3	37.3	37.3	73	29.5	0	1	292	0.00	29.661 
17:30	37.3	37.3	37.3	73	29.5	0	1	292	0.00	29.674 
17:35	37.3	37.3	37.3	74	29.8	0	1	292	0.00	29.674 
17:40	37.2	37.2	37.2	74	29.7	0	1	292	0.00	29.674 
17:45	37.2	37.2	37.2	74	29.7	0	0	---	0.00	29.677 
17:50	37.0	37.0	37.0	75	29.8	0	1	292	0.00	29.677 
17:55	37.0	37.0	37.0	75	29.8	0	1	292	0.00	29.677 
18:00	37.0	37.0	37.0	76	30.2	0	0	---	0.00	29.688 
18:05	36.9	36.9	36.9	76	30.1	0	0	---	0.00	29.688 
18:10	36.9	36.9	36.9	77	30.4	0	0	---	0.00	29.688 
18:15	36.8	36.8	36.8	77	30.3	0	0	---	0.00	29.688 
18:20	36.6	36.6	36.6	77	30.1	0	0	---	0.00	29.688 
18:25	36.6	36.6	36.6	78	30.4	0	0	---	0.00	29.688 
18:30	36.5	36.5	36.5	79	30.6	0	0	---	0.00	29.688 
18:35	36.5	36.5	36.5	79	30.6	0	0	---	0.00	29.688 
18:40	36.3	36.3	36.3	79	30.4	0	0	---	0.00	29.688 
18:45	36.5	36.5	36.5	80	30.9	0	2	292	0.00	29.691 
18:50	36.6	36.6	36.6	80	31.0	0	1	292	0.00	29.691 
18:55	36.8	36.8	36.8	80	31.2	0	1	292	0.00	29.691 
19:00	36.9	36.9	36.9	79	31.0	0	1	292	0.00	29.694 
19:05	36.9	36.9	36.9	79	31.0	0	1	292	0.00	29.694 
19:10	36.9	36.9	36.9	79	31.0	0	1	292	0.00	29.694 
19:15	36.9	36.9	36.9	79	31.0	0	0	---	0.00	29.703 
19:20	36.9	36.9	36.9	79	31.0	0	1	292	0.00	29.703 
19:25	36.9	36.9	36.9	79	31.0	0	1	292	0.00	29.703 
19:30	36.9	36.9	36.9	80	31.3	0	1	292	0.00	29.704 
19:35	37.0	37.0	37.0	80	31.4	0	3	292	0.00	29.704 
19:40	37.2	37.2	37.2	80	31.6	0	2	292	0.00	29.704 
19:45	37.3	37.3	37.3	80	31.7	0	3	292	0.00	29.701 
19:50	37.3	37.3	37.3	80	31.7	0	3	292	0.00	29.701 
19:55	37.5	37.5	37.5	80	31.9	0	2	292	0.00	29.701 
20:00	37.5	37.5	37.5	79	31.6	0	1	292	0.00	29.696 
20:05	37.5	37.5	37.5	79	31.6	0	2	292	0.00	29.696 
20:10	37.5	37.5	37.5	79	31.6	0	1	292	0.00	29.696 
20:15	37.3	37.3	37.3	80	31.7	0	1	292	0.00	29.698 
20:20	37.3	37.3	37.3	80	31.7	0	1	292	0.00	29.698 
20:25	37.2	37.2	37.2	80	31.6	0	1	292	0.00	29.698 
20:30	37.2	37.2	37.2	80	31.6	0	1	292	0.00	29.699 
20:35	37.0	37.0	37.0	81	31.7	0	1	292	0.00	29.699 
20:40	37.0	37.0	37.0	81	31.7	0	0	---	0.00	29.699 
20:45	37.0	37.0	37.0	81	31.7	0	0	---	0.00	29.705 
20:50	37.0	37.0	37.0	81	31.7	0	1	292	0.00	29.705 
20:55	36.9	36.9	36.9	81	31.6	0	0	---	0.00	29.705 
21:00	36.9	36.9	36.9	81	31.6	0	1	292	0.00	29.704 
21:05	36.9	36.9	36.9	82	31.9	0	0	---	0.00	29.704 
21:10	36.9	36.9	36.9	82	31.9	0	1	292	0.00	29.704 
21:15	36.8	36.8	36.8	82	31.8	0	0	---	0.00	29.700 
21:20	36.8	36.8	36.8	82	31.8	0	0	---	0.00	29.700 
21:25	36.8	36.8	36.8	83	32.1	0	1	292	0.00	29.700 
21:30	36.8	36.8	36.8	83	32.1	0	1	292	0.00	29.705 
21:35	36.8	36.8	36.8	83	32.1	0	1	292	0.00	29.705 
21:40	36.8	36.8	36.8	83	32.1	0	1	292	0.00	29.705 
21:45	36.6	36.6	36.6	83	31.9	0	1	292	0.00	29.705 
21:50	36.8	36.8	36.8	84	32.4	0	0	---	0.00	29.705 
21:55	36.8	36.8	36.8	84	32.4	0	1	292	0.00	29.705 
22:00	36.8	36.8	36.8	84	32.4	0	1	292	0.00	29.704 
22:05	36.8	36.8	36.8	84	32.4	0	1	292	0.00	29.704 
22:10	36.8	36.8	36.8	84	32.4	0	1	292	0.00	29.704 
22:15	36.8	36.8	36.8	84	32.4	0	0	---	0.00	29.702 
22:20	36.6	36.6	36.6	84	32.2	0	0	---	0.00	29.702 
22:25	36.6	36.6	36.6	84	32.2	0	0	---	0.00	29.702 
22:30	36.5	36.5	36.5	84	32.1	0	0	---	0.00	29.691 
22:35	36.5	36.5	36.5	85	32.4	0	0	---	0.00	29.691 
22:40	36.3	36.3	36.3	85	32.2	0	0	---	0.00	29.691 
22:45	36.2	36.2	36.2	85	32.1	0	0	---	0.00	29.696 
22:50	36.2	36.2	36.2	85	32.1	0	0	---	0.00	29.696 
22:55	36.2	36.2	36.2	86	32.4	0	1	292	0.00	29.696 
23:00	36.2	36.2	36.2	86	32.4	0	0	---	0.00	29.702 
23:05	36.2	36.2	36.2	86	32.4	0	0	---	0.00	29.702 
23:10	36.2	36.2	36.2	86	32.4	0	0	---	0.00	29.702 
23:15	36.2	36.2	36.2	86	32.4	0	0	---	0.00	29.706 
23:20	36.2	36.2	36.2	86	32.4	0	1	292	0.00	29.706 
23:25	36.2	36.2	36.2	87	32.7	0	0	---	0.00	29.706 
23:30	36.3	36.3	36.3	87	32.8	0	0	---	0.00	29.706 
23:35	36.3	36.3	36.3	87	32.8	0	1	292	0.00	29.706 
23:40	36.3	36.3	36.3	87	32.8	0	1	292	0.00	29.706 
23:45	36.3	36.3	36.3	87	32.8	0	0	---	0.00	29.705 
23:50	36.3	36.3	36.3	87	32.8	0	0	---	0.00	29.705 
23:55	36.3	36.3	36.3	87	32.8	0	1	292	0.00	29.705 

CoCoRaHS
IN-AL-39
A2 Web Hosting
Creative Commons License
GoDaddy
search engine by freefind advanced

loaded 2018-11-20 08:38:12 • last modified 2010-11-18 10:43:29
Privacy PolicyDisclaimer
• wx.awcolley.com is powered by PmWiki v.2002016 •
• all content (unless otherwise noted) © 2018 A W Colley